Avon Lake, Iowa
Current Conditions -  °F | °C
As of 7:19 AM on Sunday 23 Nov 2014 (Local Time) from KDSM Reporting Station
Drizzle Drizzle  
Wind Chill: 12°   Ceiling: 400
Heat Index: 12°   Visibility: 7mi
Dew Point: 10°   Wind: 14mph
Humidity: 89%   Direction: 170°S
Pressure: 29.52"   Gusts: NA
Location:  41.4707°N, 93.4797°W
Report Text: KDSM 231319Z 17012KT 7SM -DZ OVC004 12/10 A2952 RMK AO2 P0000 T01170100
Loading
Personal Weather Stations






























Interactive Weather Map New forecast layout! Learn more

10-Day Weather Forecast

Advertisements
Track Severe Weather on mobile